createdAt,value
2016-10-06T00:03:00.115Z,17.92
2016-10-06T00:08:00.062Z,17.86
2016-10-06T00:13:00.013Z,17.79
2016-10-06T00:17:59.963Z,17.79
2016-10-06T00:22:59.899Z,17.86
2016-10-06T00:27:59.541Z,17.77
2016-10-06T00:32:59.784Z,17.81
2016-10-06T00:37:59.427Z,17.69
2016-10-06T00:42:59.673Z,17.68
2016-10-06T00:47:59.621Z,17.66
2016-10-06T00:52:59.564Z,17.68
2016-10-06T00:57:59.506Z,17.6
2016-10-06T01:02:59.452Z,17.68
2016-10-06T01:07:59.393Z,17.62
2016-10-06T01:12:59.337Z,17.76
2016-10-06T01:17:59.283Z,17.74
2016-10-06T01:22:58.937Z,17.63
2016-10-06T01:27:58.863Z,17.79
2016-10-06T01:32:58.807Z,17.73
2016-10-06T01:37:59.060Z,17.68
2016-10-06T01:42:58.999Z,17.66
2016-10-06T01:47:58.941Z,17.74
2016-10-06T01:52:58.890Z,17.63
2016-10-06T01:57:58.832Z,17.69
2016-10-06T02:02:58.783Z,17.63
2016-10-06T02:07:58.723Z,17.62
2016-10-06T02:12:58.359Z,17.6
2016-10-06T02:17:58.599Z,17.57
2016-10-06T02:22:58.245Z,17.6
2016-10-06T02:27:58.488Z,17.49
2016-10-06T02:32:58.439Z,17.49
2016-10-06T02:37:58.375Z,17.63
2016-10-06T02:42:58.017Z,17.52
2016-10-06T02:47:58.269Z,17.6
2016-10-06T02:52:57.902Z,17.5
2016-10-06T02:57:58.155Z,17.49
2016-10-06T03:02:58.095Z,17.5
2016-10-06T03:07:58.038Z,17.4
2016-10-06T03:12:57.981Z,17.4
2016-10-06T03:17:57.919Z,17.38
2016-10-06T03:22:57.864Z,17.32
2016-10-06T03:27:57.810Z,17.35
2016-10-06T03:32:57.439Z,17.28
2016-10-06T03:37:57.392Z,17.3
2016-10-06T03:42:57.338Z,17.31
2016-10-06T03:47:57.267Z,17.22
2016-10-06T03:52:57.206Z,17.27
2016-10-06T03:57:57.470Z,17.18
2016-10-06T04:02:57.393Z,17.21
2016-10-06T04:07:57.033Z,17.21
2016-10-06T04:12:57.280Z,17.15
2016-10-06T04:17:57.217Z,17.25
2016-10-06T04:22:56.856Z,17.17
2016-10-06T04:27:56.813Z,17.12
2016-10-06T04:32:57.047Z,17.12
2016-10-06T04:37:56.987Z,16.95
2016-10-06T04:42:56.929Z,16.94
2016-10-06T04:47:56.860Z,17.06
2016-10-06T04:52:56.804Z,17.06
2016-10-06T04:57:56.448Z,17.02
2016-10-06T05:02:56.087Z,17.02
2016-10-06T05:07:56.337Z,16.94
2016-10-06T05:12:56.269Z,16.95
2016-10-06T05:17:56.519Z,16.91
2016-10-06T05:22:56.451Z,16.9
2016-10-06T05:27:56.093Z,16.92
2016-10-06T05:32:56.028Z,16.92
2016-10-06T05:37:56.279Z,16.97
2016-10-06T05:42:56.212Z,16.88
2016-10-06T05:47:56.154Z,16.87
2016-10-06T05:52:56.090Z,16.99
2016-10-06T05:57:55.727Z,17.1
2016-10-06T06:02:55.980Z,17.39
2016-10-06T06:07:55.612Z,17.39
2016-10-06T06:12:55.863Z,17.49
2016-10-06T06:17:55.794Z,17.65
2016-10-06T06:22:55.739Z,17.6
2016-10-06T06:27:55.682Z,17.76
2016-10-06T06:32:55.620Z,17.77
2016-10-06T06:37:54.954Z,17.99
2016-10-06T06:42:55.503Z,18.01
2016-10-06T06:47:55.137Z,18.19
2016-10-06T06:52:55.378Z,18.16
2016-10-06T06:57:55.025Z,18.11
2016-10-06T07:02:55.268Z,18.26
2016-10-06T07:07:55.215Z,18.36
2016-10-06T07:12:55.163Z,18.44
2016-10-06T07:17:55.117Z,18.47
2016-10-06T07:22:55.047Z,18.41
2016-10-06T07:27:54.675Z,18.44
2016-10-06T07:32:54.625Z,18.44
2016-10-06T07:37:54.569Z,18.39
2016-10-06T07:42:54.811Z,18.35
2016-10-06T07:47:54.458Z,18.31
2016-10-06T07:52:54.706Z,18.24
2016-10-06T07:57:54.637Z,18.21
2016-10-06T08:02:54.281Z,18.36
2016-10-06T08:07:54.231Z,18.31
2016-10-06T08:12:54.178Z,18.24
2016-10-06T08:17:54.423Z,18.26
2016-10-06T08:22:54.365Z,18.23
2016-10-06T08:27:54.315Z,18.24
2016-10-06T08:32:54.297Z,18.16
2016-10-06T08:37:54.203Z,18.17
2016-10-06T08:42:54.145Z,18.19
2016-10-06T08:47:54.091Z,18.2
2016-10-06T08:52:53.737Z,18.2
2016-10-06T08:57:53.687Z,18.23
2016-10-06T09:02:53.631Z,18.24
2016-10-06T09:07:53.569Z,18.23
2016-10-06T09:12:53.527Z,18.24
2016-10-06T09:17:53.763Z,18.2
2016-10-06T09:22:53.709Z,18.19
2016-10-06T09:27:53.351Z,18.24
2016-10-06T09:32:53.607Z,18.21
2016-10-06T09:37:53.242Z,18.24
2016-10-06T09:42:53.196Z,18.31
2016-10-06T09:47:53.444Z,18.24
2016-10-06T09:52:53.387Z,18.27
2016-10-06T09:57:53.024Z,18.32
2016-10-06T10:02:52.974Z,18.23
2016-10-06T10:07:53.078Z,18.42
2016-10-06T10:12:52.869Z,18.42
2016-10-06T10:17:53.116Z,18.56
2016-10-06T10:22:53.061Z,18.63
2016-10-06T10:27:53.014Z,18.6
2016-10-06T10:32:52.960Z,18.53
2016-10-06T10:37:52.916Z,18.45
2016-10-06T10:42:52.853Z,18.53
2016-10-06T10:47:52.497Z,18.5
2016-10-06T10:52:52.441Z,18.51
2016-10-06T10:57:52.691Z,18.42
2016-10-06T11:02:52.332Z,18.41
2016-10-06T11:07:52.580Z,18.45
2016-10-06T11:12:52.544Z,18.39
2016-10-06T11:17:52.173Z,18.42
2016-10-06T11:22:52.149Z,18.39
2016-10-06T11:27:52.066Z,18.45
2016-10-06T11:32:52.322Z,18.44
2016-10-06T11:37:51.951Z,18.49
2016-10-06T11:42:51.911Z,18.42
2016-10-06T11:47:52.153Z,18.45
2016-10-06T11:52:52.093Z,18.44
2016-10-06T11:57:52.054Z,18.41
2016-10-06T12:02:51.710Z,18.42
2016-10-06T12:07:51.941Z,18.44
2016-10-06T12:12:51.585Z,18.39
2016-10-06T12:17:51.525Z,18.35
2016-10-06T12:22:51.792Z,18.41
2016-10-06T12:27:51.414Z,18.45
2016-10-06T12:32:51.358Z,18.44
2016-10-06T12:37:51.611Z,18.39
2016-10-06T12:42:51.558Z,18.53
2016-10-06T12:47:51.513Z,18.66
2016-10-06T12:52:51.455Z,18.56
2016-10-06T12:57:50.789Z,18.47
2016-10-06T13:02:51.341Z,18.47
2016-10-06T13:07:51.289Z,18.51
2016-10-06T13:12:51.252Z,18.42
2016-10-06T13:17:51.184Z,18.44
2016-10-06T13:22:51.132Z,18.41
2016-10-06T13:27:50.777Z,18.39
2016-10-06T13:32:51.025Z,18.36
2016-10-06T13:37:50.665Z,18.41
2016-10-06T13:42:50.603Z,18.44
2016-10-06T13:47:50.861Z,18.44
2016-10-06T13:52:50.496Z,18.39
2016-10-06T13:57:50.752Z,18.41
2016-10-06T14:02:50.708Z,18.44
2016-10-06T14:07:50.348Z,18.47
2016-10-06T14:12:50.588Z,18.57
2016-10-06T14:17:50.540Z,18.47
2016-10-06T14:22:50.182Z,18.57
2016-10-06T14:27:50.148Z,18.45
2016-10-06T14:32:50.391Z,18.54
2016-10-06T14:37:50.024Z,18.45
2016-10-06T14:42:50.292Z,18.44
2016-10-06T14:47:50.228Z,18.47
2016-10-06T14:52:49.868Z,18.42
2016-10-06T14:57:50.140Z,18.41
2016-10-06T15:02:49.462Z,18.38
2016-10-06T15:07:50.026Z,18.45
2016-10-06T15:12:49.357Z,18.41
2016-10-06T15:17:49.923Z,18.34
2016-10-06T15:22:49.559Z,18.36
2016-10-06T15:27:49.805Z,18.42
2016-10-06T15:32:49.750Z,18.42
2016-10-06T15:37:49.394Z,18.41
2016-10-06T15:42:49.652Z,18.75
2016-10-06T15:47:49.592Z,18.97
2016-10-06T15:52:49.538Z,19.34
2016-10-06T15:57:49.187Z,19.67
2016-10-06T16:02:49.444Z,19.8
2016-10-06T16:07:49.074Z,19.85
2016-10-06T16:12:49.332Z,19.8
2016-10-06T16:17:48.982Z,19.87
2016-10-06T16:22:49.236Z,19.83
2016-10-06T16:27:48.888Z,19.74
2016-10-06T16:32:49.135Z,19.74
2016-10-06T16:37:49.090Z,19.72
2016-10-06T16:42:49.049Z,19.71
2016-10-06T16:47:48.995Z,19.63
2016-10-06T16:52:48.937Z,19.52
2016-10-06T16:57:48.904Z,19.42
2016-10-06T17:02:48.550Z,19.38
2016-10-06T17:07:48.493Z,19.28
2016-10-06T17:12:48.749Z,19.31
2016-10-06T17:17:48.403Z,19.5
2016-10-06T17:22:48.658Z,19.55
2016-10-06T17:27:47.996Z,19.68
2016-10-06T17:32:47.945Z,19.64
2016-10-06T17:37:48.199Z,19.68
2016-10-06T17:42:48.453Z,19.45
2016-10-06T17:47:48.101Z,19.56
2016-10-06T17:52:48.367Z,19.63
2016-10-06T17:57:48.317Z,19.67
2016-10-06T18:02:48.272Z,19.57
2016-10-06T18:07:48.215Z,19.52
2016-10-06T18:12:48.166Z,19.5
2016-10-06T18:17:48.116Z,19.47
2016-10-06T18:22:47.764Z,19.46
2016-10-06T18:27:48.021Z,19.52
2016-10-06T18:32:47.983Z,19.47
2016-10-06T18:37:47.614Z,19.5
2016-10-06T18:42:47.571Z,19.67
2016-10-06T18:47:47.529Z,19.67
2016-10-06T18:52:47.165Z,19.71
2016-10-06T18:57:47.439Z,19.72
2016-10-06T19:02:47.397Z,19.74
2016-10-06T19:07:47.642Z,19.75
2016-10-06T19:12:47.598Z,19.8
2016-10-06T19:17:47.242Z,19.74
2016-10-06T19:22:47.507Z,19.74
2016-10-06T19:27:47.150Z,19.75
2016-10-06T19:32:47.126Z,19.74
2016-10-06T19:37:47.065Z,19.79
2016-10-06T19:42:47.325Z,19.75
2016-10-06T19:47:47.279Z,19.68
2016-10-06T19:52:47.240Z,19.78
2016-10-06T19:57:47.183Z,19.72
2016-10-06T20:02:47.146Z,19.7
2016-10-06T20:07:47.096Z,19.64
2016-10-06T20:12:47.052Z,19.72
2016-10-06T20:17:47.004Z,19.72
2016-10-06T20:22:46.656Z,19.71
2016-10-06T20:27:46.904Z,19.65
2016-10-06T20:32:46.870Z,19.65
2016-10-06T20:37:46.524Z,19.71
2016-10-06T20:42:46.465Z,19.68
2016-10-06T20:47:46.725Z,19.61
2016-10-06T20:52:46.677Z,19.68
2016-10-06T20:57:46.634Z,19.63
2016-10-06T21:02:45.994Z,19.64
2016-10-06T21:07:46.550Z,19.65
2016-10-06T21:12:46.502Z,19.61
2016-10-06T21:17:46.466Z,19.65
2016-10-06T21:22:46.104Z,19.65
2016-10-06T21:27:46.061Z,19.57
2016-10-06T21:32:46.010Z,19.65
2016-10-06T21:37:45.955Z,19.6
2016-10-06T21:42:46.222Z,19.61
2016-10-06T21:47:46.172Z,19.56
2016-10-06T21:52:46.131Z,19.49
2016-10-06T21:57:46.077Z,19.46
2016-10-06T22:02:46.032Z,19.55
2016-10-06T22:07:45.984Z,19.45
2016-10-06T22:12:45.633Z,19.32
2016-10-06T22:17:45.885Z,19.37
2016-10-06T22:22:45.842Z,19.25
2016-10-06T22:27:45.788Z,19.25
2016-10-06T22:32:45.736Z,19.2
2016-10-06T22:37:45.085Z,19.23
2016-10-06T22:42:45.640Z,19.2
2016-10-06T22:47:45.591Z,19.07
2016-10-06T22:52:45.541Z,19.07
2016-10-06T22:57:45.189Z,19.02
2016-10-06T23:02:45.141Z,18.99
2016-10-06T23:07:45.393Z,19
2016-10-06T23:12:45.344Z,19
2016-10-06T23:17:44.991Z,18.99
2016-10-06T23:22:44.962Z,18.93
2016-10-06T23:27:44.883Z,18.9
2016-10-06T23:32:45.142Z,18.91
2016-10-06T23:37:44.779Z,18.87
2016-10-06T23:42:45.037Z,18.84
2016-10-06T23:47:44.682Z,18.89
2016-10-06T23:52:44.933Z,18.89
2016-10-06T23:57:44.890Z,18.9
